Skip to main content.

Regional Weather Summary








Warning: A non-numeric value encountered in /home/nwawlqmy/public_html/regionalwx.php on line 172
Station Name-Location
 
Time
 
Baro
Pressure
Outside
Temp
 Temp
Max
Temp
Min
Dew
Point
RH
%
Wind
Speed
Average
Wind Dir
Wind Max
Last Hr
Wind
Gust Max
Rain
Today
Rain
Last Hr
Rain Rate
in/hr
Rain
Month
Rain
Year
Vermilionweather-Near Lake Vermilion02:32:4530.09 inHg    51.4°F 57.4°F51.4°F46.0°F82%0.0 mph NNE0.0 mph 0.0 mph 0.00in0.00in0.00in/hr5.17in21.82in
EMA HQ's-Home Gardens- -:- -:- -Old Data  - -.-    - -.-- -.-- -.-- -%- - -.-- -- - -.-- - -.-- - . -
Warning: A non-numeric value encountered in /home/nwawlqmy/public_html/regionalwx.php on line 172
0.00in
0.00in/hr- - . -- - . -
Mahomet02:32:3629.56 inHg     55.8°F 60.3°F55.8°F45.3°F68%2.0 mph NE6.9 mph 10.4 mph 0.00in0.00in0.00in/hr0.18in13.41in

Version 2.12 6th August 2012

If you own a personal weather station
and would like to have your data displayed here,
use the "Contact admin" link at the bottom of the page
to find out how.

For full weather information visit the individual websites above
This page was created by Clevedon Weather using some basic php scripts from TNET Weather.
The script for displaying the data has been produced by Clevedon Weather but has been modified by Vermilionweather.com for it's own use.



Nearby METAR Reports

Nearby METAR Reports

 

KDNV - Danville, Illinois, USA
Distance from station: 0 0mi, 0km
Updated: Thu, 30-May-2024 2:32am CDT
unable to load KDNV data RC=
unable to load KDNV data RC=
 
KTIP - Rantoul, Illinois, USA
Distance from station: W 30mi, 48km
Updated: Thu, 30-May-2024 2:33am CDT
unable to load KTIP data RC=
unable to load KTIP data RC=
 
 
KPRG - Paris, Illinois, USA
Distance from station: S 35mi, 56km
Updated: Thu, 30-May-2024 2:15am CDT
Clear
Clear
 Wind from NE
Wind: NE 6 mph , 9 km/h
Temperature: 55°F , 13°C
Dew Point: 46°F , 8°C
Humidity: 72%
Barometer: 30.19 inHg , 1022.4 hPa
Clouds: Clear
Visibility: 10 miles , 16 km
2024/05/30 07:15 KPRG 300715Z AUTO 05005KT 10SM CLR 13/08 A3019 RMK AO2 LTG DSNT NW T01260080
KCMI - Champaign/Urbana, Illinois, USA
Distance from station: WSW 37mi, 60km
Updated: Thu, 30-May-2024 1:53am CDT
Clear
Clear
 Wind from NE
Wind: NE 10 mph , 17 km/h
Temperature: 57°F , 14°C
Dew Point: 45°F , 7°C
Humidity: 63%
Barometer: 30.19 inHg , 1022.4 hPa
Clouds: Clear
Visibility: 10 miles , 16 km
2024/05/30 06:53 KCMI 300653Z 04009KT 10SM CLR 14/07 A3019 RMK AO2 SLP221 T01390072
 
KLAF - Lafayette, Indiana, USA
Distance from station: ENE 38mi, 61km
Updated: Thu, 30-May-2024 1:54am CDT
Clear
Clear
 Wind from calm
Wind: Calm
Temperature: 48°F , 9°C
Dew Point: 45°F , 7°C
Humidity: 87%
Barometer: 30.19 inHg , 1022.4 hPa
Clouds: Clear
Visibility: 10 miles , 16 km
2024/05/30 06:54 KLAF 300654Z AUTO 00000KT 10SM CLR 09/07 A3019 RMK AO2 SLP221 T00890072
KCFJ - Crawfordsville, Indiana, USA
Distance from station: ESE 39mi, 63km
Updated: Thu, 30-May-2024 2:15am CDT
Clear
Clear
 Wind from NNE
Wind: NNE 5 mph , 7 km/h
Temperature: 50°F , 10°C
Wind Chill: 48°F , 9°C
Dew Point: 39°F , 4°C
Humidity: 67%
Barometer: 30.19 inHg , 1022.4 hPa
Clouds: Clear
Visibility: 10 miles , 16 km
2024/05/30 07:15 KCFJ 300715Z AUTO 02004KT 10SM CLR 10/04 A3019 RMK AO2 T01010035

Metar display script from Saratoga-Weather.org

Go To Top